Terminal Aerodrome Forecast
Issued by NWS

Home | Current Version | Previous Version | Graphics & Text | Print | Product List | Glossary On
Versions: 1 2 3 4 5 6 7 8 9 10 11 12 13 14 15 16 17 18 19 20 21 22 23 24 25 26 27 28 29 30 31 32
000
FTUS43 KGRB 030520
TAFRHI
TAF
KRHI 030520Z 0306/0406 22003KT P6SM SCT080
     FM031500 25009G15KT P6SM SCT045 BKN250 PROB30 0322/0402 5SM
      -TSRA BKN040CB BKN080
     FM040200 VRB03KT P6SM SCT040 BKN070=

USA.gov is the U.S. government's official web portal to all federal, state and local government web resources and services.